Time;durP1;ratioP1;P1;durP2;ratioP2;P2;SDS_P1;SDS_P2;PMS_P1;PMS_P2;Temp;Humidity;BMP_temperature;BMP_pressure;BME280_temperature;BME280_humidity;BME280_pressure;Samples;Min_cycle;Max_cycle;Signal;HPM_P1;HPM_P2
2022/03/19 00:01:05;;;;;;;2.17;1.33;;;4.40;99.90;;;;;;4969330;28;20224;-90
2022/03/19 00:03:34;;;;;;;0.70;0.70;;;4.50;99.90;;;;;;4985251;28;20700;-89
2022/03/19 00:05:59;;;;;;;2.77;2.67;;;4.60;99.90;;;;;;4986714;28;20229;-90
2022/03/19 00:08:25;;;;;;;0.70;0.70;;;4.60;99.90;;;;;;4952599;28;20635;-89
2022/03/19 00:10:51;;;;;;;1.70;1.47;;;4.50;99.90;;;;;;4968907;28;20235;-90
2022/03/19 00:13:17;;;;;;;0.90;0.90;;;4.50;99.90;;;;;;4985197;28;20199;-88
2022/03/19 00:15:43;;;;;;;1.00;0.97;;;4.60;99.90;;;;;;4968198;28;20227;-89
2022/03/19 00:18:09;;;;;;;0.63;0.63;;;4.50;99.90;;;;;;4961726;28;20220;-89
2022/03/19 00:20:37;;;;;;;1.83;1.73;;;4.50;99.90;;;;;;4984523;28;20577;-90
2022/03/19 00:23:05;;;;;;;0.53;0.43;;;4.50;99.90;;;;;;4968721;28;20601;-88
2022/03/19 00:25:31;;;;;;;1.03;0.93;;;4.50;99.90;;;;;;4969164;28;20520;-88
2022/03/19 00:27:57;;;;;;;0.47;0.47;;;4.50;99.90;;;;;;4967897;28;20251;-89
2022/03/19 00:30:22;;;;;;;9.13;1.30;;;4.30;99.90;;;;;;4968387;28;20233;-91
2022/03/19 00:32:48;;;;;;;1.33;0.90;;;4.30;99.90;;;;;;4952312;28;20693;-87
2022/03/19 00:35:15;;;;;;;0.93;0.70;;;4.30;99.90;;;;;;4951877;28;20227;-92
2022/03/19 00:37:46;;;;;;;3.60;0.70;;;4.30;99.90;;;;;;4952321;28;20653;-88
2022/03/19 00:40:13;;;;;;;2.93;1.50;;;4.30;99.90;;;;;;4984141;28;20409;-91
2022/03/19 00:42:39;;;;;;;0.60;0.60;;;4.30;99.90;;;;;;4967597;28;20223;-90
2022/03/19 00:45:06;;;;;;;1.07;0.83;;;4.30;99.90;;;;;;4983955;28;20315;-89
2022/03/19 00:47:32;;;;;;;1.03;1.03;;;4.10;99.90;;;;;;4959766;28;20314;-89
2022/03/19 00:49:58;;;;;;;0.83;0.77;;;4.00;99.90;;;;;;4958981;28;20196;-92
2022/03/19 00:52:23;;;;;;;0.40;0.40;;;4.10;99.90;;;;;;4953241;28;20203;-93
2022/03/19 00:54:50;;;;;;;0.30;0.30;;;4.20;99.90;;;;;;4960695;28;20327;-92
2022/03/19 00:57:16;;;;;;;0.90;0.90;;;4.20;99.90;;;;;;4984009;28;20251;-92
2022/03/19 00:59:42;;;;;;;0.80;0.80;;;4.20;99.90;;;;;;4984996;28;20239;-93
2022/03/19 01:02:08;;;;;;;0.57;0.57;;;4.20;99.90;;;;;;4968195;28;20735;-91
2022/03/19 01:04:33;;;;;;;0.90;0.90;;;4.10;99.90;;;;;;4968465;28;20215;-91
2022/03/19 01:06:59;;;;;;;0.70;0.70;;;4.00;99.90;;;;;;4961259;28;20684;-92
2022/03/19 01:09:25;;;;;;;3.43;1.13;;;4.10;99.90;;;;;;4967522;28;20708;-92
2022/03/19 01:11:52;;;;;;;0.60;0.60;;;4.10;99.90;;;;;;4983251;28;20262;-91
2022/03/19 01:14:18;;;;;;;1.37;1.37;;;4.20;99.90;;;;;;4968689;28;20230;-93
2022/03/19 01:16:44;;;;;;;0.77;0.77;;;4.20;99.90;;;;;;4970892;28;20184;-93
2022/03/19 01:19:09;;;;;;;1.00;0.70;;;4.20;99.90;;;;;;4970001;28;20768;-92
2022/03/19 01:21:35;;;;;;;0.80;0.80;;;4.20;99.90;;;;;;4987140;28;20592;-93
2022/03/19 01:24:04;;;;;;;0.40;0.40;;;4.20;99.90;;;;;;4986190;28;20224;-92
2022/03/19 01:26:30;;;;;;;0.70;0.70;;;4.10;99.90;;;;;;4977976;28;20673;-92
2022/03/19 01:28:56;;;;;;;1.67;1.57;;;4.10;99.90;;;;;;4975465;28;20756;-92
2022/03/19 01:31:26;;;;;;;0.80;0.67;;;4.10;99.90;;;;;;4970931;28;20203;-94
2022/03/19 01:33:55;;;;;;;0.83;0.83;;;4.10;99.90;;;;;;4969116;28;20314;-93
2022/03/19 01:36:23;;;;;;;0.30;0.30;;;4.10;99.90;;;;;;4969541;28;20220;-93
2022/03/19 01:38:49;;;;;;;3.60;0.60;;;4.20;99.90;;;;;;4969873;28;20228;-93
2022/03/19 01:41:17;;;;;;;0.40;0.40;;;4.10;99.90;;;;;;4972132;28;20215;-91
2022/03/19 01:43:43;;;;;;;1.13;1.13;;;4.20;99.90;;;;;;4987575;28;20220;-91
2022/03/19 01:46:09;;;;;;;2.37;1.93;;;4.20;99.90;;;;;;4971635;28;20220;-91
2022/03/19 01:48:35;;;;;;;1.27;0.83;;;4.20;99.90;;;;;;4971510;28;20216;-92
2022/03/19 01:51:00;;;;;;;6.67;0.70;;;4.20;99.90;;;;;;4971399;28;20269;-91
2022/03/19 01:53:26;;;;;;;0.53;0.53;;;4.20;99.90;;;;;;4970727;28;20231;-89
2022/03/19 01:55:53;;;;;;;2.20;0.97;;;4.20;99.90;;;;;;4970619;28;20298;-88
2022/03/19 01:58:19;;;;;;;2.80;1.30;;;4.20;99.90;;;;;;4989185;28;20443;-88
2022/03/19 02:00:45;;;;;;;20.07;1.70;;;4.20;99.90;;;;;;4987498;28;20220;-91
2022/03/19 02:03:12;;;;;;;2.50;1.60;;;4.30;99.90;;;;;;4970607;28;20232;-88
2022/03/19 02:05:38;;;;;;;2.47;1.50;;;4.20;99.90;;;;;;4988403;28;20220;-89
2022/03/19 02:08:04;;;;;;;2.10;0.93;;;4.30;99.90;;;;;;4988570;28;20211;-89
2022/03/19 02:10:30;;;;;;;0.70;0.70;;;4.40;99.90;;;;;;4955051;28;20196;-88
2022/03/19 02:12:56;;;;;;;3.80;0.67;;;4.40;99.90;;;;;;4970786;28;20215;-92
2022/03/19 02:15:22;;;;;;;7.00;0.40;;;4.50;99.90;;;;;;4970890;28;20224;-90
2022/03/19 02:17:48;;;;;;;0.53;0.53;;;4.40;99.90;;;;;;4970319;28;20216;-88
2022/03/19 02:20:14;;;;;;;4.73;0.93;;;4.30;99.90;;;;;;4962713;28;20366;-91
2022/03/19 02:22:41;;;;;;;0.47;0.47;;;4.30;99.90;;;;;;4971389;28;20287;-88
2022/03/19 02:27:53;;;;;;;0.60;0.60;;;4.20;99.90;;;;;;4987552;28;20220;-90
2022/03/19 02:30:19;;;;;;;0.97;0.90;;;4.20;99.90;;;;;;4968997;28;20269;-89
2022/03/19 02:32:49;;;;;;;3.13;1.37;;;4.20;99.90;;;;;;4970178;28;20212;-88
2022/03/19 02:35:17;;;;;;;0.50;0.50;;;4.20;99.90;;;;;;4963927;28;20542;-88
2022/03/19 02:37:48;;;;;;;2.57;0.97;;;4.20;99.90;;;;;;4981679;28;20660;-88
2022/03/19 02:40:17;;;;;;;1.87;1.73;;;4.20;99.90;;;;;;4978879;28;20208;-88
2022/03/19 02:42:51;;;;;;;0.60;0.60;;;4.10;99.90;;;;;;4986115;28;20220;-88
2022/03/19 02:45:18;;;;;;;5.37;0.53;;;4.20;99.90;;;;;;4970693;28;20227;-88
2022/03/19 02:47:59;;;;;;;0.40;0.40;;;4.20;99.90;;;;;;4987343;28;20224;-87
2022/03/19 02:50:33;;;;;;;11.63;1.20;;;4.40;99.90;;;;;;4960535;28;20254;-88
2022/03/19 02:53:01;;;;;;;1.90;1.73;;;4.50;99.90;;;;;;4964987;28;20205;-88
2022/03/19 02:55:32;;;;;;;3.10;0.53;;;4.50;99.90;;;;;;4954985;28;20304;-90
2022/03/19 02:57:58;;;;;;;4.57;1.97;;;4.50;99.90;;;;;;4965950;28;20212;-91
2022/03/19 03:00:23;;;;;;;0.77;0.77;;;4.40;99.90;;;;;;4966587;28;20964;-88
2022/03/19 03:02:50;;;;;;;0.53;0.53;;;4.50;99.90;;;;;;4950394;28;20756;-90
2022/03/19 03:05:16;;;;;;;1.50;1.40;;;4.60;99.90;;;;;;4950445;28;20213;-88
2022/03/19 03:07:41;;;;;;;1.37;1.33;;;4.70;99.90;;;;;;4968201;28;20192;-88
2022/03/19 03:10:08;;;;;;;0.50;0.50;;;4.70;99.90;;;;;;4967616;28;20269;-91
2022/03/19 03:12:35;;;;;;;1.90;0.50;;;4.60;99.90;;;;;;4965351;28;20526;-88
2022/03/19 03:15:00;;;;;;;0.50;0.50;;;4.60;99.90;;;;;;4949947;28;20227;-89
2022/03/19 03:17:27;;;;;;;1.10;1.10;;;4.60;99.90;;;;;;4950421;28;20224;-88
2022/03/19 03:19:53;;;;;;;1.57;1.47;;;4.60;99.90;;;;;;4949660;28;20185;-88
2022/03/19 03:22:19;;;;;;;0.40;0.40;;;4.50;99.90;;;;;;4950895;28;20204;-88
2022/03/19 03:24:45;;;;;;;0.57;0.57;;;4.50;99.90;;;;;;4949956;28;20240;-87
2022/03/19 03:27:10;;;;;;;2.00;1.00;;;4.60;99.90;;;;;;4950067;28;20213;-88
2022/03/19 03:29:39;;;;;;;0.73;0.73;;;4.60;99.90;;;;;;4957526;28;20697;-89
2022/03/19 03:32:05;;;;;;;1.23;0.63;;;4.50;99.90;;;;;;4966111;28;20292;-89
2022/03/19 03:34:31;;;;;;;0.87;0.87;;;4.50;99.90;;;;;;4965861;28;20613;-89
2022/03/19 03:36:56;;;;;;;1.37;0.60;;;4.50;99.90;;;;;;4965806;28;20307;-88
2022/03/19 03:39:22;;;;;;;0.60;0.60;;;4.50;99.90;;;;;;4966443;28;20220;-87
2022/03/19 03:41:48;;;;;;;2.53;0.57;;;4.50;99.90;;;;;;4964881;28;20705;-88
2022/03/19 03:44:14;;;;;;;1.23;1.23;;;4.50;99.90;;;;;;4950511;28;20233;-88
2022/03/19 03:46:40;;;;;;;3.30;1.47;;;4.40;99.90;;;;;;4950145;28;20203;-88
2022/03/19 03:49:05;;;;;;;1.27;0.53;;;4.40;99.90;;;;;;4967096;28;20461;-89
2022/03/19 03:51:31;;;;;;;0.40;0.40;;;4.40;99.90;;;;;;4949558;28;20228;-88
2022/03/19 03:53:58;;;;;;;2.37;1.57;;;4.50;99.90;;;;;;4949521;28;20232;-88
2022/03/19 03:56:23;;;;;;;12.33;1.53;;;4.40;99.90;;;;;;4957230;28;20236;-89
2022/03/19 03:58:49;;;;;;;10.97;1.83;;;4.40;99.90;;;;;;4967011;28;20205;-88
2022/03/19 04:01:16;;;;;;;1.20;1.20;;;4.40;99.90;;;;;;4966121;28;20346;-87
2022/03/19 04:03:42;;;;;;;7.20;1.53;;;4.40;99.90;;;;;;4965548;28;20250;-88
2022/03/19 04:06:08;;;;;;;1.33;1.30;;;4.50;99.90;;;;;;4972942;28;20665;-89
2022/03/19 04:08:33;;;;;;;1.90;0.70;;;4.50;99.90;;;;;;4972099;28;20228;-89
2022/03/19 04:10:59;;;;;;;0.40;0.40;;;4.50;99.90;;;;;;4965808;28;20184;-88
2022/03/19 04:13:25;;;;;;;5.23;1.20;;;4.50;99.90;;;;;;4950419;28;20650;-88
2022/03/19 04:15:51;;;;;;;1.40;1.27;;;4.50;99.90;;;;;;4965242;28;20224;-90
2022/03/19 04:18:17;;;;;;;0.80;0.80;;;4.40;99.90;;;;;;4973072;28;20217;-89
2022/03/19 04:20:42;;;;;;;7.53;1.17;;;4.30;99.90;;;;;;4956467;28;20227;-88
2022/03/19 04:23:09;;;;;;;3.40;1.70;;;4.30;99.90;;;;;;4965362;28;20240;-88
2022/03/19 04:25:35;;;;;;;4.97;0.70;;;4.30;99.90;;;;;;4965790;28;20204;-89
2022/03/19 04:28:01;;;;;;;0.90;0.90;;;4.30;99.90;;;;;;4966038;28;20213;-88
2022/03/19 04:30:28;;;;;;;1.10;1.00;;;4.30;99.90;;;;;;4974988;28;20220;-89
2022/03/19 04:33:02;;;;;;;0.97;0.97;;;4.30;99.90;;;;;;4965962;28;20231;-89
2022/03/19 04:38:18;;;;;;;22.70;2.07;;;4.20;99.90;;;;;;4972756;28;20216;-88
2022/03/19 04:40:45;;;;;;;1.73;1.63;;;4.10;99.90;;;;;;4965485;28;20177;-88
2022/03/19 04:43:11;;;;;;;2.47;2.27;;;4.10;99.90;;;;;;4964989;28;20558;-89
2022/03/19 04:45:39;;;;;;;1.27;1.17;;;4.10;99.90;;;;;;4981564;28;20756;-89
2022/03/19 04:48:06;;;;;;;2.30;1.87;;;4.10;99.90;;;;;;4955906;28;20507;-88
2022/03/19 04:50:37;;;;;;;1.40;1.30;;;4.00;99.90;;;;;;4964543;28;20220;-90
2022/03/19 04:53:04;;;;;;;0.90;0.90;;;4.10;99.90;;;;;;4943821;28;20281;-88
2022/03/19 04:55:30;;;;;;;1.40;1.40;;;4.10;99.90;;;;;;4975245;28;20232;-89
2022/03/19 04:57:55;;;;;;;0.90;0.90;;;4.10;99.90;;;;;;4966547;28;20231;-89
2022/03/19 05:00:21;;;;;;;2.70;1.10;;;4.00;99.90;;;;;;4949431;28;20228;-88
2022/03/19 05:02:47;;;;;;;1.77;1.67;;;4.00;99.90;;;;;;4948778;28;20224;-88
2022/03/19 05:05:13;;;;;;;1.17;1.07;;;4.00;99.90;;;;;;4965243;28;20220;-88
2022/03/19 05:07:39;;;;;;;3.30;2.33;;;4.00;99.90;;;;;;4966161;28;20191;-92
2022/03/19 05:12:54;;;;;;;2.70;1.80;;;3.90;99.90;;;;;;4972948;28;20572;-89
2022/03/19 05:15:20;;;;;;;2.23;1.57;;;4.00;99.90;;;;;;4944722;28;20223;-88
2022/03/19 05:17:45;;;;;;;1.73;1.33;;;4.00;99.90;;;;;;4968634;28;20228;-91
2022/03/19 05:20:13;;;;;;;1.20;1.10;;;3.90;99.90;;;;;;4968507;28;21303;-88
2022/03/19 05:22:39;;;;;;;5.67;1.87;;;4.00;99.90;;;;;;4970636;28;20260;-87
2022/03/19 05:25:06;;;;;;;1.73;0.90;;;4.00;99.90;;;;;;4968175;28;20699;-90
2022/03/19 05:27:32;;;;;;;2.37;1.73;;;4.00;99.90;;;;;;4969081;28;20244;-87
2022/03/19 05:29:58;;;;;;;1.40;1.30;;;4.00;99.90;;;;;;4978138;28;20319;-89
2022/03/19 05:32:24;;;;;;;1.40;1.30;;;4.00;99.90;;;;;;4951600;28;20812;-87
2022/03/19 05:34:50;;;;;;;1.67;1.40;;;4.00;99.90;;;;;;4968584;28;20204;-88
2022/03/19 05:37:16;;;;;;;2.20;1.50;;;3.80;99.90;;;;;;4978194;28;20197;-89
2022/03/19 05:39:43;;;;;;;0.87;0.87;;;3.80;99.90;;;;;;4968286;28;20696;-89
2022/03/19 05:42:09;;;;;;;8.30;1.80;;;3.80;99.90;;;;;;4969320;28;20231;-88
2022/03/19 05:44:35;;;;;;;5.17;1.30;;;3.80;99.90;;;;;;4969107;28;20263;-89
2022/03/19 05:47:01;;;;;;;1.93;1.83;;;3.70;99.90;;;;;;4968523;28;20658;-89
2022/03/19 05:49:28;;;;;;;1.97;1.87;;;3.80;99.90;;;;;;4953148;28;20193;-87
2022/03/19 05:51:54;;;;;;;1.97;1.87;;;3.80;99.90;;;;;;4943666;28;20263;-87
2022/03/19 05:54:20;;;;;;;7.33;1.53;;;3.90;99.90;;;;;;4959431;28;20252;-87
2022/03/19 05:56:46;;;;;;;1.10;1.10;;;4.20;99.90;;;;;;4943898;28;20343;-87
2022/03/19 05:59:12;;;;;;;1.40;1.23;;;4.40;99.90;;;;;;4967794;28;20228;-88
2022/03/19 06:01:38;;;;;;;1.47;1.30;;;4.50;99.90;;;;;;4928660;28;20193;-87
2022/03/19 06:04:04;;;;;;;2.17;2.00;;;4.50;99.90;;;;;;4951624;28;20226;-89
2022/03/19 06:06:30;;;;;;;9.87;2.30;;;4.70;99.90;;;;;;4935849;28;20216;-87
2022/03/19 06:08:57;;;;;;;6.27;1.63;;;5.00;99.90;;;;;;4967184;28;20356;-90
2022/03/19 06:11:22;;;;;;;1.10;1.10;;;5.00;99.90;;;;;;4945681;28;20227;-91
2022/03/19 06:13:49;;;;;;;1.33;1.23;;;5.00;99.90;;;;;;4969727;28;20193;-91
2022/03/19 06:16:15;;;;;;;0.90;0.90;;;5.10;99.90;;;;;;4969683;28;20592;-91
2022/03/19 06:18:46;;;;;;;18.17;3.40;;;5.40;99.90;;;;;;4958614;28;20229;-90
2022/03/19 06:21:12;;;;;;;3.83;2.20;;;5.40;99.90;;;;;;4936143;28;20229;-91
2022/03/19 06:23:38;;;;;;;3.40;2.33;;;5.30;99.90;;;;;;4942662;28;20235;-90
2022/03/19 06:26:03;;;;;;;8.50;1.90;;;5.60;99.90;;;;;;4967209;28;20188;-87
2022/03/19 06:28:29;;;;;;;4.13;2.27;;;5.90;99.90;;;;;;4951953;28;20204;-89
2022/03/19 06:30:55;;;;;;;0.97;0.97;;;6.00;99.90;;;;;;4935353;28;20235;-86
2022/03/19 06:33:21;;;;;;;1.43;1.33;;;6.10;99.90;;;;;;4968343;28;20283;-88
2022/03/19 06:38:31;;;;;;;2.07;1.93;;;6.40;99.90;;;;;;4967831;28;20216;-88
2022/03/19 06:40:59;;;;;;;6.43;2.30;;;6.40;99.90;;;;;;4950729;28;20193;-92
2022/03/19 06:43:26;;;;;;;6.83;1.73;;;6.90;99.90;;;;;;4951373;28;20232;-87
2022/03/19 06:45:54;;;;;;;1.70;1.53;;;7.70;99.90;;;;;;4934710;28;20227;-89
2022/03/19 06:48:21;;;;;;;2.27;2.10;;;8.40;99.90;;;;;;4942187;28;20204;-94
2022/03/19 06:50:46;;;;;;;2.23;1.97;;;8.90;99.90;;;;;;4950784;28;20234;-90
2022/03/19 06:53:12;;;;;;;2.30;1.67;;;9.20;99.90;;;;;;4952147;28;20237;-87
2022/03/19 06:55:38;;;;;;;18.33;4.03;;;9.50;99.90;;;;;;4979206;28;20239;-89
2022/03/19 06:58:04;;;;;;;2.00;1.43;;;9.80;99.90;;;;;;4961823;28;20631;-88
2022/03/19 07:00:30;;;;;;;1.97;1.70;;;10.00;99.90;;;;;;4985186;28;20231;-88
2022/03/19 07:02:56;;;;;;;6.97;3.13;;;10.10;99.90;;;;;;4984072;28;20216;-85
2022/03/19 07:05:27;;;;;;;3.90;2.37;;;10.70;99.90;;;;;;4978187;28;20556;-86
2022/03/19 07:07:54;;;;;;;2.70;2.43;;;10.60;99.90;;;;;;4968406;28;20257;-89
2022/03/19 07:10:20;;;;;;;12.63;3.53;;;10.50;99.90;;;;;;4968559;28;20192;-87
2022/03/19 07:12:47;;;;;;;3.00;2.30;;;10.40;99.90;;;;;;4978316;28;20219;-87
2022/03/19 07:15:14;;;;;;;2.37;2.17;;;10.60;99.90;;;;;;4986971;28;20483;-90
2022/03/19 07:17:41;;;;;;;2.93;1.90;;;10.80;99.90;;;;;;4985260;28;20215;-87
2022/03/19 07:20:07;;;;;;;3.27;2.53;;;10.80;99.90;;;;;;4984092;28;20270;-88
2022/03/19 07:22:58;;;;;;;3.83;3.60;;;10.90;99.90;;;;;;4954821;28;20199;-87
2022/03/19 07:25:34;;;;;;;5.33;2.80;;;10.70;99.90;;;;;;4987739;28;20215;-90
2022/03/19 07:28:05;;;;;;;1.93;1.53;;;10.60;99.90;;;;;;4987615;28;20314;-87
2022/03/19 07:30:32;;;;;;;3.53;2.47;;;10.90;99.90;;;;;;4968649;28;20223;-89
2022/03/19 07:32:58;;;;;;;8.10;3.00;;;11.00;99.90;;;;;;4961747;28;20660;-89
2022/03/19 07:35:24;;;;;;;3.87;2.13;;;10.80;99.90;;;;;;4967277;28;20251;-87
2022/03/19 07:37:50;;;;;;;3.77;2.10;;;10.90;99.90;;;;;;4952511;28;20214;-89
2022/03/19 07:43:06;;;;;;;8.00;2.43;;;11.10;99.90;;;;;;4987035;28;20220;-85
2022/03/19 07:45:32;;;;;;;1.77;1.67;;;11.10;99.90;;;;;;4970683;28;20684;-86
2022/03/19 07:47:58;;;;;;;3.17;1.80;;;11.50;99.90;;;;;;4969413;28;20216;-93
2022/03/19 07:50:23;;;;;;;1.50;1.40;;;11.30;99.90;;;;;;4971950;28;20303;-90
2022/03/19 07:52:50;;;;;;;5.63;2.53;;;11.20;99.90;;;;;;4964257;28;20288;-87
2022/03/19 07:55:17;;;;;;;3.80;1.90;;;10.90;99.90;;;;;;4975016;28;20232;-85
2022/03/19 07:57:43;;;;;;;4.10;1.63;;;10.90;99.90;;;;;;4994542;28;20234;-89
2022/03/19 08:00:09;;;;;;;4.63;1.93;;;10.80;99.90;;;;;;4961598;28;20219;-86
2022/03/19 08:02:35;;;;;;;2.00;1.80;;;10.60;99.90;;;;;;4961345;28;20314;-90
2022/03/19 08:05:03;;;;;;;2.97;2.70;;;10.60;99.90;;;;;;4968878;28;20212;-89
2022/03/19 08:07:29;;;;;;;4.23;2.60;;;10.90;99.90;;;;;;4976381;28;20833;-85
2022/03/19 08:09:55;;;;;;;4.40;1.00;;;11.10;99.90;;;;;;4985952;28;20277;-85
2022/03/19 08:12:21;;;;;;;1.73;1.63;;;11.10;99.90;;;;;;4982653;28;20262;-87
2022/03/19 08:14:47;;;;;;;4.47;2.57;;;10.80;99.90;;;;;;4985906;28;20591;-87
2022/03/19 08:17:14;;;;;;;7.90;1.40;;;10.80;99.90;;;;;;4961058;28;20266;-91
2022/03/19 08:19:42;;;;;;;3.13;1.83;;;10.80;99.90;;;;;;4962191;28;20225;-89
2022/03/19 08:22:09;;;;;;;7.37;1.50;;;11.30;99.90;;;;;;4962180;28;20596;-89
2022/03/19 08:24:35;;;;;;;2.17;1.30;;;11.10;99.90;;;;;;4975803;28;20240;-89
2022/03/19 08:27:01;;;;;;;3.53;1.47;;;11.00;99.90;;;;;;4974684;28;20215;-84
2022/03/19 08:29:27;;;;;;;4.03;1.67;;;11.10;99.90;;;;;;4959947;28;20673;-83
2022/03/19 08:31:54;;;;;;;4.83;2.60;;;11.10;99.90;;;;;;4984494;28;20184;-90
2022/03/19 08:34:20;;;;;;;8.07;2.30;;;11.20;99.90;;;;;;4959992;28;20847;-84
2022/03/19 08:36:46;;;;;;;5.67;1.70;;;10.70;99.90;;;;;;4984779;28;20218;-84
2022/03/19 08:41:58;;;;;;;1.90;1.07;;;11.20;99.90;;;;;;4981860;28;20211;-85
2022/03/19 08:44:24;;;;;;;2.80;1.43;;;11.00;99.90;;;;;;4985082;28;20230;-90
2022/03/19 08:46:50;;;;;;;3.97;1.63;;;11.30;99.90;;;;;;4971100;28;20638;-86
2022/03/19 08:49:16;;;;;;;7.87;2.17;;;11.10;99.90;;;;;;4975147;28;20176;-86
2022/03/19 08:51:42;;;;;;;5.40;1.23;;;11.20;99.90;;;;;;4984665;28;20251;-90
2022/03/19 08:54:14;;;;;;;10.13;2.20;;;11.60;99.90;;;;;;4985253;28;20251;-85
2022/03/19 08:56:40;;;;;;;2.97;1.87;;;11.40;99.90;;;;;;4982912;28;20216;-86
2022/03/19 08:59:07;;;;;;;5.63;2.10;;;11.40;99.90;;;;;;4966730;28;20239;-87
2022/03/19 09:01:33;;;;;;;6.43;2.77;;;11.10;99.90;;;;;;4985171;28;20190;-87
2022/03/19 09:03:59;;;;;;;3.50;1.40;;;11.10;99.90;;;;;;4966908;28;20220;-85
2022/03/19 09:06:25;;;;;;;2.10;1.40;;;11.00;99.90;;;;;;4960805;28;20220;-86
2022/03/19 09:08:51;;;;;;;4.30;1.47;;;10.90;99.90;;;;;;4981420;28;20219;-84
2022/03/19 09:11:18;;;;;;;1.93;1.57;;;10.90;99.90;;;;;;4950542;28;20219;-87
2022/03/19 09:13:48;;;;;;;3.57;1.40;;;11.00;99.90;;;;;;4976061;28;20258;-85
2022/03/19 09:16:15;;;;;;;3.43;1.60;;;11.00;99.90;;;;;;4966059;28;20208;-85
2022/03/19 09:18:41;;;;;;;1.43;1.33;;;10.50;99.90;;;;;;4966570;28;20220;-84
2022/03/19 09:21:07;;;;;;;1.17;1.17;;;10.30;99.90;;;;;;4959511;28;20234;-84
2022/03/19 09:23:33;;;;;;;2.00;1.43;;;10.00;99.90;;;;;;4951143;28;20611;-87
2022/03/19 09:25:59;;;;;;;0.80;0.80;;;10.10;99.90;;;;;;4967750;28;20191;-90
2022/03/19 09:28:25;;;;;;;2.87;1.17;;;10.20;99.90;;;;;;4985999;28;20648;-90
2022/03/19 09:30:51;;;;;;;4.73;1.80;;;10.30;99.90;;;;;;4959316;28;20222;-89
2022/03/19 09:33:17;;;;;;;1.83;1.63;;;10.30;99.90;;;;;;4983610;28;20232;-87
2022/03/19 09:35:43;;;;;;;0.97;0.90;;;10.20;99.90;;;;;;4984252;28;20290;-89
2022/03/19 09:38:09;;;;;;;1.10;1.00;;;10.30;99.90;;;;;;4983763;28;20223;-87
2022/03/19 09:40:34;;;;;;;3.37;0.93;;;10.60;99.90;;;;;;4975865;28;20580;-81
2022/03/19 09:43:01;;;;;;;0.63;0.50;;;10.70;99.90;;;;;;4966976;28;20219;-85
2022/03/19 09:45:28;;;;;;;1.70;1.57;;;10.70;99.90;;;;;;4967081;28;20259;-89
2022/03/19 09:47:55;;;;;;;4.73;1.90;;;11.10;99.90;;;;;;4966444;28;20228;-90
2022/03/19 09:50:22;;;;;;;1.30;1.20;;;11.50;99.90;;;;;;4968321;28;20227;-87
2022/03/19 09:52:53;;;;;;;2.80;0.97;;;11.90;99.90;;;;;;4967395;28;20187;-86
2022/03/19 09:55:20;;;;;;;2.23;0.50;;;12.50;99.90;;;;;;4967998;28;20235;-82
2022/03/19 09:57:46;;;;;;;11.70;1.10;;;12.70;99.90;;;;;;4951500;28;20227;-89
2022/03/19 10:00:13;;;;;;;5.13;1.57;;;12.80;99.90;;;;;;4983653;28;20268;-89
2022/03/19 10:03:00;;;;;;;2.83;1.00;;;12.60;99.90;;;;;;4961343;28;20315;-90
2022/03/19 10:11:00;;;;;;;4.67;0.90;;;12.50;99.90;;;;;;4980404;28;20243;-86
2022/03/19 10:13:26;;;;;;;5.40;1.10;;;12.70;99.90;;;;;;4962657;28;20479;-84
2022/03/19 10:15:53;;;;;;;0.60;0.60;;;13.20;99.90;;;;;;4952448;28;20605;-84
2022/03/19 10:18:26;;;;;;;5.57;1.17;;;13.20;99.90;;;;;;4987199;28;20250;-85
2022/03/19 10:20:53;;;;;;;11.37;2.00;;;13.20;99.90;;;;;;4985964;28;20756;-85
2022/03/19 10:23:33;;;;;;;4.10;1.40;;;13.20;99.90;;;;;;4960749;28;20355;-86
2022/03/19 10:25:59;;;;;;;5.93;1.10;;;13.10;99.90;;;;;;4985809;28;20258;-87
2022/03/19 10:28:30;;;;;;;5.20;1.90;;;13.20;99.90;;;;;;4985190;28;20211;-87
2022/03/19 10:30:56;;;;;;;4.33;1.40;;;13.00;99.90;;;;;;4987361;28;20311;-86
2022/03/19 10:33:32;;;;;;;0.40;0.40;;;12.90;99.90;;;;;;4953748;28;20712;-84
2022/03/19 10:36:31;;;;;;;4.63;1.10;;;12.90;99.90;;;;;;4987713;28;20239;-85
2022/03/19 10:38:57;;;;;;;3.83;0.90;;;12.80;99.90;;;;;;4986846;28;20216;-87
2022/03/19 10:41:23;;;;;;;4.03;1.00;;;12.80;99.90;;;;;;4977785;28;20220;-87
2022/03/19 10:43:49;;;;;;;2.67;1.03;;;12.80;99.90;;;;;;4984129;28;20251;-86
2022/03/19 10:46:18;;;;;;;2.30;1.10;;;12.90;99.90;;;;;;4963975;28;20719;-87
2022/03/19 10:48:58;;;;;;;1.70;1.03;;;12.80;99.90;;;;;;4987757;28;20230;-87
2022/03/19 10:51:31;;;;;;;1.70;0.87;;;12.90;99.90;;;;;;4970176;28;20208;-87
2022/03/19 10:53:59;;;;;;;1.23;0.53;;;13.00;99.90;;;;;;4985857;28;20724;-87
2022/03/19 10:56:25;;;;;;;1.57;1.13;;;13.30;99.90;;;;;;4962783;28;20262;-91
2022/03/19 10:58:51;;;;;;;2.10;1.53;;;13.40;99.90;;;;;;4953287;28;20290;-91
2022/03/19 11:01:17;;;;;;;1.40;0.80;;;13.20;99.90;;;;;;4989080;28;20692;-92
2022/03/19 11:03:45;;;;;;;2.20;0.90;;;13.10;99.90;;;;;;4969195;28;20690;-93
2022/03/19 11:06:11;;;;;;;1.57;0.70;;;13.50;99.90;;;;;;4953527;28;20561;-90
2022/03/19 11:08:43;;;;;;;2.43;0.57;;;13.60;99.90;;;;;;4962334;28;20226;-88
2022/03/19 11:11:18;;;;;;;3.97;1.67;;;13.50;99.90;;;;;;4985601;28;20673;-89
2022/03/19 11:13:54;;;;;;;2.93;0.83;;;13.80;99.90;;;;;;4986746;28;20584;-90
2022/03/19 11:16:21;;;;;;;3.03;0.80;;;13.80;99.90;;;;;;4984181;28;20227;-89
2022/03/19 11:18:50;;;;;;;2.13;1.10;;;13.60;99.90;;;;;;4953387;28;20246;-87
2022/03/19 11:21:16;;;;;;;1.13;0.73;;;13.60;99.90;;;;;;4968375;28;20235;-88
2022/03/19 11:24:02;;;;;;;2.83;1.07;;;13.20;99.90;;;;;;4985882;28;20228;-88
2022/03/19 11:26:29;;;;;;;2.47;1.50;;;13.20;99.90;;;;;;4976907;28;20226;-91
2022/03/19 11:28:56;;;;;;;1.93;1.50;;;13.20;99.90;;;;;;4968070;28;20727;-88
2022/03/19 11:31:32;;;;;;;0.80;0.57;;;13.30;99.90;;;;;;4979399;28;20183;-88
2022/03/19 11:34:19;;;;;;;4.00;1.33;;;13.20;99.90;;;;;;4964320;28;20438;-88
2022/03/19 11:36:59;;;;;;;2.57;1.10;;;13.40;99.90;;;;;;4970065;28;20226;-88
2022/03/19 11:39:25;;;;;;;6.97;1.43;;;13.10;99.90;;;;;;4987485;28;20444;-88
2022/03/19 11:41:53;;;;;;;5.63;1.60;;;13.10;99.90;;;;;;4939007;28;20618;-87
2022/03/19 11:44:26;;;;;;;3.83;1.40;;;13.20;99.90;;;;;;4970466;28;20235;-88
2022/03/19 11:46:57;;;;;;;2.20;1.67;;;13.10;99.90;;;;;;4987931;28;20184;-88
2022/03/19 11:49:49;;;;;;;5.07;1.77;;;13.10;99.90;;;;;;4981260;28;20196;-89
2022/03/19 11:52:47;;;;;;;1.77;1.10;;;13.20;99.90;;;;;;4987213;28;20307;-90
2022/03/19 11:55:17;;;;;;;0.80;0.80;;;12.80;99.90;;;;;;4955296;28;20244;-88
2022/03/19 11:57:46;;;;;;;2.97;1.43;;;12.70;99.90;;;;;;4968847;28;20624;-88
2022/03/19 12:00:20;;;;;;;2.90;1.07;;;12.80;99.90;;;;;;4966086;28;20232;-89
2022/03/19 12:03:16;;;;;;;1.70;1.10;;;12.50;99.90;;;;;;4949412;28;20236;-88
2022/03/19 12:05:47;;;;;;;5.20;1.73;;;12.30;99.90;;;;;;4878091;28;21226;-88
2022/03/19 12:08:20;;;;;;;7.40;0.93;;;12.20;99.90;;;;;;4939522;28;20296;-88
2022/03/19 12:10:54;;;;;;;1.60;0.87;;;12.10;99.90;;;;;;4962526;28;20184;-86
2022/03/19 12:13:27;;;;;;;1.67;0.90;;;12.00;99.90;;;;;;4946293;28;20212;-87
2022/03/19 12:15:57;;;;;;;1.73;1.53;;;12.10;99.90;;;;;;4947794;28;20236;-93
2022/03/19 12:18:47;;;;;;;1.83;0.97;;;12.20;99.90;;;;;;4948970;28;20303;-89
2022/03/19 12:21:21;;;;;;;1.90;1.13;;;12.00;99.90;;;;;;4948042;28;20697;-87
2022/03/19 12:24:10;;;;;;;1.17;0.87;;;12.00;99.90;;;;;;4965798;28;20232;-88
2022/03/19 12:26:41;;;;;;;1.63;1.10;;;12.00;99.90;;;;;;4943266;28;20237;-87
2022/03/19 12:29:13;;;;;;;2.50;0.90;;;11.80;99.90;;;;;;4943424;28;20225;-87
2022/03/19 12:31:50;;;;;;;9.40;1.13;;;11.70;99.90;;;;;;4945032;28;20177;-87
2022/03/19 12:34:19;;;;;;;1.03;1.03;;;11.80;99.90;;;;;;4950918;28;20228;-87
2022/03/19 12:36:46;;;;;;;1.73;0.60;;;11.30;99.90;;;;;;4966312;28;20216;-87
2022/03/19 12:39:13;;;;;;;1.40;1.30;;;11.20;99.90;;;;;;4950341;28;21076;-87
2022/03/19 12:41:40;;;;;;;3.13;1.03;;;11.50;99.90;;;;;;4950638;28;20242;-86
2022/03/19 12:44:28;;;;;;;3.90;1.37;;;11.10;99.90;;;;;;4943398;28;20303;-84
2022/03/19 12:47:02;;;;;;;3.13;1.03;;;11.10;99.90;;;;;;4950090;28;20572;-86
2022/03/19 12:49:31;;;;;;;4.73;0.77;;;11.20;99.90;;;;;;4967833;28;20519;-86
2022/03/19 12:52:04;;;;;;;3.63;1.07;;;11.00;99.90;;;;;;4942014;28;20272;-88
2022/03/19 12:54:31;;;;;;;1.87;0.90;;;10.90;99.90;;;;;;4950198;28;20232;-88
2022/03/19 12:57:06;;;;;;;3.90;0.77;;;10.90;99.90;;;;;;4986333;28;20231;-88
2022/03/19 12:59:32;;;;;;;1.57;1.47;;;10.90;99.90;;;;;;4970110;28;20223;-86
2022/03/19 13:01:58;;;;;;;4.10;1.73;;;11.00;99.90;;;;;;4987187;28;20214;-85
2022/03/19 13:04:28;;;;;;;3.33;1.60;;;10.90;99.90;;;;;;4987811;28;20216;-86
2022/03/19 13:06:56;;;;;;;0.67;0.67;;;11.10;99.90;;;;;;4953664;28;20822;-87
2022/03/19 13:09:37;;;;;;;2.07;1.00;;;11.00;99.90;;;;;;4962304;28;20231;-85
2022/03/19 13:12:05;;;;;;;0.60;0.60;;;11.00;99.90;;;;;;4969570;28;20219;-88
2022/03/19 13:14:35;;;;;;;0.80;0.80;;;11.20;99.90;;;;;;4987529;28;20227;-86
2022/03/19 13:17:02;;;;;;;1.97;1.87;;;11.00;99.90;;;;;;4987006;28;20211;-86
2022/03/19 13:19:33;;;;;;;0.40;0.30;;;11.00;99.90;;;;;;4978458;28;20633;-86